createdAt,value
2018-08-25T00:01:03.451Z,6.67
2018-08-25T00:03:31.779Z,7.37
2018-08-25T00:06:00.089Z,10.88
2018-08-25T00:08:28.412Z,5.90
2018-08-25T00:10:56.701Z,3.50
2018-08-25T00:13:25.042Z,7.83
2018-08-25T00:15:53.343Z,6.60
2018-08-25T00:18:21.647Z,13.88
2018-08-25T00:20:49.907Z,5.20
2018-08-25T00:23:18.201Z,8.85
2018-08-25T00:25:46.476Z,5.50
2018-08-25T00:28:14.775Z,5.92
2018-08-25T00:30:48.390Z,8.40
2018-08-25T00:33:16.683Z,5.85
2018-08-25T00:35:44.958Z,6.47
2018-08-25T00:38:13.411Z,5.53
2018-08-25T00:40:41.684Z,8.83
2018-08-25T00:43:10.179Z,3.80
2018-08-25T00:45:38.418Z,5.45
2018-08-25T00:48:06.870Z,6.00
2018-08-25T00:50:35.158Z,6.85
2018-08-25T00:53:03.867Z,5.87
2018-08-25T00:55:32.148Z,3.42
2018-08-25T00:58:00.501Z,3.27
2018-08-25T01:00:28.845Z,5.37
2018-08-25T01:02:57.144Z,6.03
2018-08-25T01:05:25.432Z,6.65
2018-08-25T01:07:53.672Z,11.75
2018-08-25T01:10:22.252Z,5.95
2018-08-25T01:12:50.559Z,7.85
2018-08-25T01:15:18.839Z,9.48
2018-08-25T01:17:47.123Z,5.60
2018-08-25T01:20:15.383Z,4.70
2018-08-25T01:22:50.491Z,4.85
2018-08-25T01:25:18.765Z,6.53
2018-08-25T01:27:47.348Z,4.53
2018-08-25T01:30:15.571Z,7.37
2018-08-25T01:32:43.819Z,5.97
2018-08-25T01:35:12.123Z,3.52
2018-08-25T01:37:40.456Z,7.37
2018-08-25T01:40:08.818Z,6.37
2018-08-25T01:42:37.120Z,6.33
2018-08-25T01:45:05.394Z,10.93
2018-08-25T01:47:33.658Z,4.85
2018-08-25T01:50:01.953Z,4.22
2018-08-25T01:52:30.212Z,4.60
2018-08-25T01:54:58.492Z,4.50
2018-08-25T01:57:26.792Z,7.17
2018-08-25T01:59:55.088Z,5.45
2018-08-25T02:02:23.377Z,6.85
2018-08-25T02:04:51.654Z,9.93
2018-08-25T02:07:19.899Z,4.17
2018-08-25T02:09:48.152Z,5.42
2018-08-25T02:12:16.467Z,4.30
2018-08-25T02:14:44.875Z,10.75
2018-08-25T02:17:13.547Z,7.40
2018-08-25T02:19:41.822Z,8.28
2018-08-25T02:22:10.367Z,8.48
2018-08-25T02:24:38.636Z,11.03
2018-08-25T02:27:06.921Z,8.33
2018-08-25T02:29:35.227Z,14.45
2018-08-25T02:32:03.550Z,5.12
2018-08-25T02:34:31.823Z,10.03
2018-08-25T02:37:00.068Z,10.93
2018-08-25T02:39:28.393Z,9.15
2018-08-25T02:41:56.616Z,8.28
2018-08-25T02:44:24.891Z,5.72
2018-08-25T02:46:53.258Z,4.97
2018-08-25T02:49:21.546Z,6.12
2018-08-25T02:51:49.943Z,2.83
2018-08-25T02:54:18.282Z,6.47
2018-08-25T02:56:46.519Z,6.00
2018-08-25T02:59:14.883Z,7.08
2018-08-25T03:01:43.179Z,3.70
2018-08-25T03:04:11.472Z,6.40
2018-08-25T03:06:39.878Z,8.33
2018-08-25T03:09:09.931Z,9.28
2018-08-25T03:11:38.213Z,6.47
2018-08-25T03:14:06.554Z,11.50
2018-08-25T03:16:34.837Z,7.15
2018-08-25T03:19:03.273Z,10.43
2018-08-25T03:21:31.823Z,7.90
2018-08-25T03:24:00.165Z,5.05
2018-08-25T03:26:28.500Z,7.75
2018-08-25T03:28:56.848Z,6.17
2018-08-25T03:31:25.215Z,5.30
2018-08-25T03:33:53.458Z,7.15
2018-08-25T03:36:21.733Z,6.37
2018-08-25T03:38:50.101Z,6.35
2018-08-25T03:41:18.382Z,6.45
2018-08-25T03:43:46.711Z,8.75
2018-08-25T03:46:14.995Z,8.05
2018-08-25T03:48:43.287Z,4.80
2018-08-25T03:51:11.583Z,5.53
2018-08-25T03:53:39.838Z,7.97
2018-08-25T03:56:08.294Z,5.95
2018-08-25T03:58:36.584Z,4.08
2018-08-25T04:01:05.149Z,5.67
2018-08-25T04:03:33.480Z,5.30
2018-08-25T04:06:01.802Z,5.70
2018-08-25T04:08:30.098Z,7.90
2018-08-25T04:10:58.460Z,5.72
2018-08-25T04:13:26.753Z,8.38
2018-08-25T04:15:55.025Z,8.45
2018-08-25T04:18:23.344Z,9.88
2018-08-25T04:20:51.619Z,8.33
2018-08-25T04:23:19.876Z,8.50
2018-08-25T04:25:48.164Z,7.20
2018-08-25T04:28:16.446Z,10.43
2018-08-25T04:30:44.705Z,9.38
2018-08-25T04:33:13.062Z,8.43
2018-08-25T04:35:41.422Z,9.08
2018-08-25T04:38:09.723Z,6.28
2018-08-25T04:40:38.002Z,5.80
2018-08-25T04:43:06.444Z,10.15
2018-08-25T04:45:34.773Z,10.53
2018-08-25T04:48:03.069Z,13.60
2018-08-25T04:50:31.452Z,11.30
2018-08-25T04:52:59.756Z,8.25
2018-08-25T04:55:28.122Z,7.95
2018-08-25T04:57:56.403Z,9.45
2018-08-25T05:00:24.700Z,8.25
2018-08-25T05:02:52.960Z,6.60
2018-08-25T05:05:21.386Z,7.50
2018-08-25T05:07:49.706Z,7.80
2018-08-25T05:10:18.046Z,5.90
2018-08-25T05:12:46.352Z,11.20
2018-08-25T05:15:14.728Z,7.65
2018-08-25T05:17:43.047Z,12.68
2018-08-25T05:20:11.344Z,8.18
2018-08-25T05:22:39.658Z,9.95
2018-08-25T05:25:08.296Z,10.43
2018-08-25T05:27:36.822Z,10.50
2018-08-25T05:30:06.182Z,5.33
2018-08-25T05:32:34.481Z,11.73
2018-08-25T05:35:02.748Z,11.53
2018-08-25T05:37:31.091Z,7.75
2018-08-25T05:39:59.349Z,5.83
2018-08-25T05:42:27.650Z,5.40
2018-08-25T05:44:55.969Z,7.75
2018-08-25T05:47:24.303Z,6.60
2018-08-25T05:49:52.619Z,5.58
2018-08-25T05:52:20.931Z,7.28
2018-08-25T05:54:49.286Z,6.30
2018-08-25T05:57:17.847Z,5.80
2018-08-25T05:59:46.149Z,3.77
2018-08-25T06:02:14.512Z,5.40
2018-08-25T06:04:42.830Z,7.92
2018-08-25T06:07:11.135Z,4.83
2018-08-25T06:09:39.425Z,6.33
2018-08-25T06:12:07.690Z,4.67
2018-08-25T06:14:35.980Z,5.80
2018-08-25T06:17:04.227Z,6.05
2018-08-25T06:19:32.608Z,6.83
2018-08-25T06:22:00.927Z,5.35
2018-08-25T06:24:29.239Z,3.77
2018-08-25T06:26:57.573Z,7.50
2018-08-25T06:29:25.865Z,6.20
2018-08-25T06:31:54.165Z,5.12
2018-08-25T06:34:22.460Z,3.70
2018-08-25T06:36:50.770Z,6.83
2018-08-25T06:39:19.073Z,4.67
2018-08-25T06:41:47.364Z,4.70
2018-08-25T06:44:22.532Z,4.65
2018-08-25T06:46:50.889Z,3.87
2018-08-25T06:49:19.143Z,3.62
2018-08-25T06:51:47.443Z,6.28
2018-08-25T06:54:15.708Z,3.58
2018-08-25T06:56:44.014Z,4.60
2018-08-25T06:59:12.297Z,3.42
2018-08-25T07:01:40.564Z,2.40
2018-08-25T07:04:08.919Z,3.42
2018-08-25T07:06:37.172Z,2.95
2018-08-25T07:09:08.181Z,3.65
2018-08-25T07:11:36.558Z,2.80
2018-08-25T07:14:04.859Z,3.25
2018-08-25T07:16:33.213Z,3.52
2018-08-25T07:19:01.548Z,2.20
2018-08-25T07:21:29.783Z,5.55
2018-08-25T07:23:58.085Z,2.37
2018-08-25T07:26:26.387Z,2.83
2018-08-25T07:28:54.672Z,2.72
2018-08-25T07:31:22.935Z,2.35
2018-08-25T07:33:51.218Z,3.33
2018-08-25T07:36:19.662Z,2.83
2018-08-25T07:38:47.927Z,2.50
2018-08-25T07:41:16.236Z,2.45
2018-08-25T07:43:44.537Z,3.52
2018-08-25T07:46:12.859Z,2.00
2018-08-25T07:48:41.204Z,2.40
2018-08-25T07:51:09.530Z,2.50
2018-08-25T07:53:37.979Z,1.70
2018-08-25T07:56:06.633Z,4.95
2018-08-25T07:58:34.991Z,3.00
2018-08-25T08:01:03.292Z,3.58
2018-08-25T08:03:31.562Z,4.05
2018-08-25T08:05:59.835Z,4.85
2018-08-25T08:08:28.109Z,5.80
2018-08-25T08:10:56.403Z,6.35
2018-08-25T08:13:24.670Z,5.90
2018-08-25T08:15:52.940Z,6.15
2018-08-25T08:18:21.193Z,3.35
2018-08-25T08:20:49.490Z,2.20
2018-08-25T08:23:17.776Z,2.25
2018-08-25T08:25:46.143Z,2.15
2018-08-25T08:28:14.530Z,2.70
2018-08-25T08:30:42.985Z,3.90
2018-08-25T08:33:11.636Z,3.58
2018-08-25T08:35:39.906Z,3.30
2018-08-25T08:38:08.333Z,3.17
2018-08-25T08:43:57.791Z,3.90
2018-08-25T08:46:31.568Z,5.35
2018-08-25T08:48:59.890Z,4.15
2018-08-25T08:51:28.203Z,3.15
2018-08-25T08:53:56.511Z,4.05
2018-08-25T08:56:24.793Z,3.00
2018-08-25T08:58:53.096Z,6.33
2018-08-25T09:01:21.825Z,2.27
2018-08-25T09:03:50.195Z,4.37
2018-08-25T09:06:18.455Z,3.77
2018-08-25T09:08:46.791Z,2.15
2018-08-25T09:11:15.406Z,2.35
2018-08-25T09:13:43.634Z,5.85
2018-08-25T09:16:11.896Z,3.05
2018-08-25T09:18:40.172Z,3.80
2018-08-25T09:21:08.486Z,2.35
2018-08-25T09:23:36.822Z,2.47
2018-08-25T09:26:05.209Z,2.70
2018-08-25T09:28:33.466Z,2.70
2018-08-25T09:31:01.725Z,3.27
2018-08-25T09:33:30.012Z,2.30
2018-08-25T09:35:58.393Z,2.47
2018-08-25T09:38:26.791Z,3.30
2018-08-25T09:40:55.139Z,2.20
2018-08-25T09:43:23.523Z,2.47
2018-08-25T09:45:51.784Z,2.55
2018-08-25T09:48:20.152Z,1.60
2018-08-25T09:50:48.475Z,3.37
2018-08-25T09:53:16.732Z,3.80
2018-08-25T09:55:44.996Z,1.42
2018-08-25T09:58:13.342Z,2.05
2018-08-25T10:00:41.621Z,1.02
2018-08-25T10:03:09.893Z,2.80
2018-08-25T10:05:38.187Z,2.70
2018-08-25T10:08:06.471Z,1.27
2018-08-25T10:10:34.755Z,1.40
2018-08-25T10:13:03.028Z,1.47
2018-08-25T10:15:31.408Z,1.87
2018-08-25T10:17:59.690Z,1.10
2018-08-25T10:20:27.950Z,1.70
2018-08-25T10:22:56.298Z,1.50
2018-08-25T10:25:24.584Z,1.22
2018-08-25T10:27:52.868Z,0.88
2018-08-25T10:30:21.142Z,2.10
2018-08-25T10:32:49.422Z,0.70
2018-08-25T10:35:17.715Z,10.45
2018-08-25T10:37:46.005Z,0.95
2018-08-25T10:40:14.621Z,2.22
2018-08-25T10:42:42.906Z,1.00
2018-08-25T10:45:11.351Z,3.45
2018-08-25T10:47:39.602Z,1.52
2018-08-25T10:50:07.949Z,1.15
2018-08-25T10:52:36.324Z,1.67
2018-08-25T10:55:05.584Z,2.65
2018-08-25T10:57:33.826Z,1.10
2018-08-25T11:00:02.154Z,1.55
2018-08-25T11:02:30.371Z,0.82
2018-08-25T11:04:58.636Z,1.62
2018-08-25T11:07:26.887Z,1.77
2018-08-25T11:09:55.210Z,1.27
2018-08-25T11:12:23.507Z,3.65
2018-08-25T11:14:51.936Z,0.98
2018-08-25T11:17:20.179Z,1.82
2018-08-25T11:19:48.472Z,1.40
2018-08-25T11:22:16.726Z,0.95
2018-08-25T11:24:44.979Z,0.78
2018-08-25T11:27:13.399Z,2.17
2018-08-25T11:29:41.761Z,3.45
2018-08-25T11:32:10.084Z,3.37
2018-08-25T11:34:38.336Z,7.20
2018-08-25T11:37:07.079Z,1.47
2018-08-25T11:39:35.310Z,6.67
2018-08-25T11:42:03.581Z,0.95
2018-08-25T11:44:31.890Z,2.17
2018-08-25T11:47:00.164Z,1.87
2018-08-25T11:49:28.439Z,2.12
2018-08-25T11:51:56.698Z,1.82
2018-08-25T11:54:24.938Z,1.45
2018-08-25T11:56:53.225Z,1.67
2018-08-25T11:59:21.613Z,1.72
2018-08-25T12:01:49.907Z,1.27
2018-08-25T12:04:18.483Z,2.15
2018-08-25T12:06:46.856Z,3.12
2018-08-25T12:09:15.117Z,1.07
2018-08-25T12:11:43.456Z,1.85
2018-08-25T12:14:11.854Z,3.00
2018-08-25T12:16:40.139Z,1.20
2018-08-25T12:19:08.428Z,1.50
2018-08-25T12:21:36.706Z,4.30
2018-08-25T12:24:05.059Z,1.80
2018-08-25T12:26:33.364Z,1.00
2018-08-25T12:29:01.662Z,2.45
2018-08-25T12:31:30.559Z,1.67
2018-08-25T12:33:58.833Z,4.40
2018-08-25T12:36:27.719Z,3.60
2018-08-25T12:38:56.040Z,6.22
2018-08-25T12:41:24.423Z,2.85
2018-08-25T12:43:52.722Z,3.08
2018-08-25T12:46:20.985Z,3.17
2018-08-25T12:48:49.291Z,6.92
2018-08-25T12:51:17.581Z,3.83
2018-08-25T12:53:45.866Z,7.83
2018-08-25T12:56:14.212Z,4.35
2018-08-25T12:58:42.516Z,4.45
2018-08-25T13:01:10.793Z,4.15
2018-08-25T13:03:39.153Z,3.58
2018-08-25T13:06:07.472Z,4.47
2018-08-25T13:08:35.745Z,2.67
2018-08-25T13:11:04.002Z,3.05
2018-08-25T13:13:32.381Z,1.55
2018-08-25T13:16:00.677Z,2.75
2018-08-25T13:18:29.903Z,2.02
2018-08-25T13:20:58.211Z,5.58
2018-08-25T13:23:26.552Z,3.15
2018-08-25T13:25:54.780Z,1.42
2018-08-25T13:28:23.080Z,3.10
2018-08-25T13:30:51.380Z,3.08
2018-08-25T13:33:19.605Z,1.80
2018-08-25T13:35:47.873Z,2.17
2018-08-25T13:38:16.317Z,3.30
2018-08-25T13:40:44.543Z,4.45
2018-08-25T13:43:12.825Z,5.15
2018-08-25T13:45:41.052Z,5.00
2018-08-25T13:48:09.328Z,4.05
2018-08-25T13:50:37.611Z,5.40
2018-08-25T13:53:05.913Z,6.03
2018-08-25T13:55:35.752Z,5.40
2018-08-25T13:58:04.018Z,7.08
2018-08-25T14:00:32.314Z,4.65
2018-08-25T14:03:00.576Z,3.25
2018-08-25T14:05:28.939Z,3.05
2018-08-25T14:07:57.230Z,4.17
2018-08-25T14:10:25.496Z,4.50
2018-08-25T14:12:53.804Z,3.15
2018-08-25T14:15:22.236Z,3.05
2018-08-25T14:17:50.486Z,2.15
2018-08-25T14:20:18.865Z,3.52
2018-08-25T14:22:47.094Z,3.40
2018-08-25T14:25:15.423Z,1.35
2018-08-25T14:27:43.705Z,4.00
2018-08-25T14:30:11.995Z,2.52
2018-08-25T14:32:40.601Z,1.72
2018-08-25T14:35:08.975Z,3.42
2018-08-25T14:37:37.233Z,2.33
2018-08-25T14:40:05.729Z,3.80
2018-08-25T14:42:34.027Z,3.12
2018-08-25T14:45:02.269Z,2.65
2018-08-25T14:47:30.624Z,1.65
2018-08-25T14:49:58.896Z,2.05
2018-08-25T14:52:27.172Z,2.77
2018-08-25T14:54:55.434Z,2.22
2018-08-25T14:57:23.747Z,2.00
2018-08-25T14:59:52.072Z,1.35
2018-08-25T15:02:20.508Z,4.95
2018-08-25T15:04:48.859Z,1.75
2018-08-25T15:07:17.312Z,3.02
2018-08-25T15:09:45.638Z,2.45
2018-08-25T15:12:13.899Z,5.72
2018-08-25T15:14:42.193Z,5.30
2018-08-25T15:17:10.491Z,2.98
2018-08-25T15:19:38.810Z,3.87
2018-08-25T15:22:07.130Z,2.67
2018-08-25T15:24:35.392Z,2.75
2018-08-25T15:27:03.950Z,3.98
2018-08-25T15:29:32.222Z,2.42
2018-08-25T15:32:00.497Z,2.52
2018-08-25T15:34:28.814Z,2.85
2018-08-25T15:36:57.091Z,4.35
2018-08-25T15:39:25.376Z,5.62
2018-08-25T15:41:53.711Z,8.73
2018-08-25T15:44:22.151Z,3.10
2018-08-25T15:46:50.332Z,4.65
2018-08-25T15:49:18.606Z,2.75
2018-08-25T15:51:46.906Z,2.87
2018-08-25T15:54:15.138Z,3.27
2018-08-25T15:56:43.484Z,5.87
2018-08-25T15:59:11.873Z,3.75
2018-08-25T16:01:40.395Z,1.87
2018-08-25T16:04:08.690Z,4.97
2018-08-25T16:06:36.955Z,2.33
2018-08-25T16:09:08.122Z,1.90
2018-08-25T16:11:36.629Z,3.27
2018-08-25T16:14:04.860Z,3.10
2018-08-25T16:16:33.109Z,2.15
2018-08-25T16:19:01.542Z,3.42
2018-08-25T16:21:29.940Z,2.62
2018-08-25T16:23:58.257Z,1.77
2018-08-25T16:26:26.566Z,1.42
2018-08-25T16:28:54.870Z,1.47
2018-08-25T16:31:23.439Z,2.60
2018-08-25T16:33:51.736Z,1.07
2018-08-25T16:36:20.085Z,1.80
2018-08-25T16:38:48.382Z,0.90
2018-08-25T16:41:16.624Z,0.93
2018-08-25T16:43:44.939Z,2.30
2018-08-25T16:46:13.242Z,4.47
2018-08-25T16:48:41.596Z,12.43
2018-08-25T16:51:09.945Z,1.92
2018-08-25T16:53:38.325Z,4.08
2018-08-25T16:56:06.850Z,2.00
2018-08-25T16:58:35.179Z,1.92
2018-08-25T17:01:03.481Z,2.70
2018-08-25T17:03:31.906Z,2.20
2018-08-25T17:06:00.188Z,2.95
2018-08-25T17:08:28.504Z,3.08
2018-08-25T17:10:56.868Z,1.75
2018-08-25T17:13:25.152Z,2.47
2018-08-25T17:15:53.416Z,1.82
2018-08-25T17:18:21.706Z,6.62
2018-08-25T17:20:50.004Z,1.50
2018-08-25T17:23:18.291Z,2.42
2018-08-25T17:25:46.555Z,4.80
2018-08-25T17:28:14.973Z,1.95
2018-08-25T17:30:43.337Z,2.00
2018-08-25T17:33:11.765Z,5.10
2018-08-25T17:35:40.156Z,1.55
2018-08-25T17:38:08.527Z,1.52
2018-08-25T17:40:36.870Z,2.42
2018-08-25T17:43:05.165Z,4.45
2018-08-25T17:45:33.486Z,3.58
2018-08-25T17:48:01.779Z,2.33
2018-08-25T17:50:30.098Z,2.10
2018-08-25T17:52:58.416Z,2.50
2018-08-25T17:55:26.680Z,0.72
2018-08-25T17:57:54.956Z,3.70
2018-08-25T18:00:23.281Z,1.30
2018-08-25T18:02:51.635Z,1.35
2018-08-25T18:05:19.956Z,2.85
2018-08-25T18:07:48.336Z,1.35
2018-08-25T18:10:16.713Z,3.77
2018-08-25T18:12:45.015Z,3.77
2018-08-25T18:15:13.251Z,3.58
2018-08-25T18:17:41.645Z,2.42
2018-08-25T18:20:09.865Z,1.80
2018-08-25T18:22:38.142Z,1.65
2018-08-25T18:25:06.433Z,1.77
2018-08-25T18:27:34.721Z,1.22
2018-08-25T18:30:03.046Z,5.20
2018-08-25T18:32:31.318Z,1.55
2018-08-25T18:34:59.539Z,3.02
2018-08-25T18:37:27.821Z,1.57
2018-08-25T18:39:56.118Z,2.35
2018-08-25T18:42:24.493Z,1.60
2018-08-25T18:44:52.797Z,1.72
2018-08-25T18:47:21.069Z,1.75
2018-08-25T18:49:49.374Z,1.47
2018-08-25T18:52:17.701Z,2.50
2018-08-25T18:54:46.063Z,1.02
2018-08-25T18:57:14.297Z,1.40
2018-08-25T18:59:42.610Z,1.40
2018-08-25T19:02:10.958Z,2.90
2018-08-25T19:04:39.265Z,2.05
2018-08-25T19:07:07.548Z,2.95
2018-08-25T19:09:35.952Z,3.62
2018-08-25T19:12:04.284Z,1.27
2018-08-25T19:14:32.606Z,2.17
2018-08-25T19:17:01.063Z,1.87
2018-08-25T19:19:29.501Z,1.55
2018-08-25T19:21:57.888Z,2.15
2018-08-25T19:24:26.598Z,1.12
2018-08-25T19:26:54.756Z,2.75
2018-08-25T19:29:23.004Z,2.45
2018-08-25T19:31:51.280Z,2.45
2018-08-25T19:34:19.603Z,2.22
2018-08-25T19:36:47.814Z,6.53
2018-08-25T19:39:16.087Z,3.08
2018-08-25T19:41:44.384Z,1.40
2018-08-25T19:44:12.644Z,1.52
2018-08-25T19:46:41.072Z,1.92
2018-08-25T19:49:09.375Z,2.72
2018-08-25T19:51:37.852Z,3.98
2018-08-25T19:54:06.201Z,2.92
2018-08-25T19:56:34.592Z,4.00
2018-08-25T19:59:03.017Z,2.40
2018-08-25T20:01:31.411Z,3.65
2018-08-25T20:03:59.770Z,3.02
2018-08-25T20:06:28.028Z,4.08
2018-08-25T20:08:56.426Z,0.80
2018-08-25T20:11:24.816Z,3.42
2018-08-25T20:13:53.107Z,3.15
2018-08-25T20:16:21.489Z,2.75
2018-08-25T20:18:49.849Z,3.08
2018-08-25T20:21:18.080Z,2.17
2018-08-25T20:23:46.382Z,2.85
2018-08-25T20:26:14.734Z,3.45
2018-08-25T20:28:43.042Z,2.77
2018-08-25T20:31:18.094Z,4.03
2018-08-25T20:33:46.364Z,4.75
2018-08-25T20:36:14.755Z,3.02
2018-08-25T20:38:43.037Z,4.25
2018-08-25T20:41:11.314Z,2.05
2018-08-25T20:43:39.780Z,2.42
2018-08-25T20:46:08.094Z,3.65
2018-08-25T20:48:36.373Z,2.60
2018-08-25T20:51:04.671Z,4.20
2018-08-25T20:53:32.893Z,4.80
2018-08-25T20:56:01.216Z,4.80
2018-08-25T20:58:29.577Z,2.95
2018-08-25T21:00:57.920Z,3.77
2018-08-25T21:03:26.203Z,3.65
2018-08-25T21:05:54.452Z,2.87
2018-08-25T21:08:22.753Z,3.67
2018-08-25T21:10:51.158Z,1.70
2018-08-25T21:13:19.438Z,2.50
2018-08-25T21:15:47.775Z,2.50
2018-08-25T21:18:16.075Z,1.35
2018-08-25T21:20:44.363Z,2.95
2018-08-25T21:23:12.660Z,3.98
2018-08-25T21:25:40.958Z,3.15
2018-08-25T21:28:09.209Z,2.50
2018-08-25T21:30:37.597Z,4.05
2018-08-25T21:33:05.855Z,4.55
2018-08-25T21:35:34.141Z,2.65
2018-08-25T21:38:02.432Z,2.40
2018-08-25T21:40:30.716Z,5.78
2018-08-25T21:42:59.108Z,3.52
2018-08-25T21:45:27.401Z,2.55
2018-08-25T21:47:55.878Z,4.75
2018-08-25T21:50:24.141Z,3.77
2018-08-25T21:52:52.464Z,2.10
2018-08-25T21:55:20.882Z,3.40
2018-08-25T21:57:49.135Z,3.72
2018-08-25T22:00:17.580Z,1.98
2018-08-25T22:02:45.854Z,3.35
2018-08-25T22:05:14.159Z,2.30
2018-08-25T22:07:42.478Z,3.10
2018-08-25T22:10:10.772Z,3.00
2018-08-25T22:12:39.013Z,6.47
2018-08-25T22:15:07.302Z,3.00
2018-08-25T22:17:35.614Z,6.90
2018-08-25T22:20:03.882Z,7.30
2018-08-25T22:22:32.216Z,6.30
2018-08-25T22:25:00.535Z,2.30
2018-08-25T22:27:28.812Z,4.28
2018-08-25T22:29:57.305Z,4.12
2018-08-25T22:32:26.251Z,4.42
2018-08-25T22:34:54.583Z,5.50
2018-08-25T22:37:22.887Z,6.58
2018-08-25T22:39:51.207Z,4.12
2018-08-25T22:42:19.770Z,2.80
2018-08-25T22:44:48.090Z,3.37
2018-08-25T22:47:19.378Z,3.87
2018-08-25T22:49:47.664Z,4.85
2018-08-25T22:52:15.962Z,3.08
2018-08-25T22:54:44.300Z,2.40
2018-08-25T22:57:12.710Z,5.25
2018-08-25T22:59:40.979Z,6.75
2018-08-25T23:02:09.266Z,3.08
2018-08-25T23:04:37.629Z,3.70
2018-08-25T23:07:05.959Z,4.95
2018-08-25T23:09:34.289Z,5.03
2018-08-25T23:12:02.614Z,3.30
2018-08-25T23:14:30.886Z,5.00
2018-08-25T23:16:59.318Z,6.10
2018-08-25T23:19:27.599Z,4.05
2018-08-25T23:21:55.920Z,4.70
2018-08-25T23:24:24.195Z,3.70
2018-08-25T23:26:52.518Z,4.80
2018-08-25T23:29:20.814Z,6.30
2018-08-25T23:31:49.088Z,3.77
2018-08-25T23:34:17.390Z,6.50
2018-08-25T23:36:45.712Z,4.00
2018-08-25T23:39:14.075Z,5.83
2018-08-25T23:41:42.409Z,4.97
2018-08-25T23:44:10.818Z,7.00
2018-08-25T23:46:39.168Z,6.45
2018-08-25T23:49:07.773Z,5.03
2018-08-25T23:51:36.115Z,7.37
2018-08-25T23:54:04.384Z,11.93
2018-08-25T23:56:32.962Z,5.78
2018-08-25T23:59:01.270Z,7.60
